This is the latest recevied weather packets stored in our database for station/object OH6NMY. If no packets are shown the sender has not sent any weather packets the latest 10 day(s).
| Time | Temp. | Humidity | Pressure | Rain* | Wind** | Luminosity | Snow |
|---|---|---|---|---|---|---|---|
| 1777140333 | 0° C | 84% | 999.3 hPa | 0.25 mm | - | - | - |
| 1777137633 | 1.11° C | 78% | 999 hPa | 0.25 mm | - | - | - |
| 1777133984 | 1.11° C | 83% | 998.2 hPa | 0 mm | - | - | - |
| 1777130613 | 0.56° C | 86% | 997.8 hPa | 0 mm | - | - | - |
| 1777126964 | 0° C | 90% | 997.4 hPa | 0.25 mm | - | - | - |
| 1777119813 | -0.56° C | 100% | 995.9 hPa | 0 mm | - | - | - |
| 1777118733 | -0.56° C | 100% | 995.6 hPa | 0 mm | - | - | - |
| 1777117653 | -0.56° C | 100% | 995.2 hPa | 0 mm | - | - | - |
| 1777115493 | -0.56° C | 100% | 993.9 hPa | 0 mm | - | - | - |
| 1777114953 | -0.56° C | 100% | 993.8 hPa | 0 mm | - | - | - |
| 1777109013 | 0° C | 96% | 990.9 hPa | 1.02 mm | - | - | - |
| 1777108066 | 0.56° C | 95% | 990.8 hPa | 0.51 mm | - | - | - |
| 1777107523 | 0.56° C | 95% | 990.4 hPa | 0.51 mm | - | - | - |
| 1777106986 | 1.11° C | 94% | 990 hPa | 0.25 mm | - | - | - |
| 1777103613 | 3.89° C | 93% | 989.3 hPa | 0 mm | - | - | - |
| 1777101453 | 4.44° C | 93% | 989.4 hPa | 0 mm | - | - | - |
| 1777100504 | 4.44° C | 92% | 989.6 hPa | 0 mm | - | - | - |
| 1777099833 | 5° C | 89% | 989.6 hPa | 0 mm | - | - | - |
| 1777098213 | 4.44° C | 92% | 990.1 hPa | 0 mm | - | - | - |
| 1777093893 | 3.33° C | 95% | 990.7 hPa | 0.25 mm | - | - | - |
| 1777090113 | 3.33° C | 94% | 991.5 hPa | 0.25 mm | - | - | - |
| 1777089573 | 3.33° C | 93% | 991.7 hPa | 0.25 mm | - | - | - |
| 1777085793 | 3.89° C | 85% | 992.8 hPa | 0 mm | - | - | - |
| 1777083633 | 3.89° C | 86% | 993.6 hPa | 0 mm | - | - | - |
| 1777077153 | 2.78° C | 89% | 995.6 hPa | 0 mm | - | - | - |
* Rain latest hour (hover to see other rain measurements)
** Current wind speed in m/s (hover to see current wind gust speed)